createdAt,value
2017-05-21T00:00:08.260Z,99.99
2017-05-21T00:10:08.238Z,99.99
2017-05-21T00:20:08.250Z,99.99
2017-05-21T00:30:08.246Z,99.99
2017-05-21T00:40:08.248Z,99.99
2017-05-21T00:50:08.250Z,99.99
2017-05-21T01:00:08.293Z,99.99
2017-05-21T01:10:08.247Z,99.99
2017-05-21T01:20:08.236Z,99.99
2017-05-21T01:30:08.238Z,99.99
2017-05-21T01:40:08.241Z,99.99
2017-05-21T01:50:08.282Z,99.99
2017-05-21T02:00:08.245Z,99.99
2017-05-21T02:10:08.325Z,99.99
2017-05-21T02:20:08.278Z,99.99
2017-05-21T02:30:08.228Z,99.99
2017-05-21T02:40:08.300Z,99.99
2017-05-21T02:50:08.261Z,99.99
2017-05-21T03:00:08.217Z,99.99
2017-05-21T03:10:08.224Z,99.99
2017-05-21T03:20:08.223Z,99.99
2017-05-21T03:30:08.322Z,99.99
2017-05-21T03:40:08.283Z,99.99
2017-05-21T03:50:08.233Z,99.99
2017-05-21T04:00:08.302Z,99.99
2017-05-21T04:10:08.214Z,99.99
2017-05-21T04:20:08.327Z,99.99
2017-05-21T04:30:08.272Z,99.99
2017-05-21T04:40:08.232Z,99.99
2017-05-21T04:50:08.204Z,99.99
2017-05-21T05:00:08.274Z,99.99
2017-05-21T05:10:08.267Z,99.99
2017-05-21T05:20:08.299Z,99.99
2017-05-21T05:30:08.260Z,99.99
2017-05-21T05:40:08.302Z,99.99
2017-05-21T05:50:08.280Z,99.99
2017-05-21T06:00:08.201Z,99.99
2017-05-21T06:10:08.306Z,99.99
2017-05-21T06:20:08.262Z,99.99
2017-05-21T06:30:08.220Z,72.31
2017-05-21T06:40:08.287Z,55.05
2017-05-21T06:50:08.197Z,45.25
2017-05-21T07:00:08.297Z,40.88
2017-05-21T07:10:08.259Z,37.55
2017-05-21T07:20:08.327Z,33.79
2017-05-21T07:30:08.231Z,32.78
2017-05-21T07:40:08.228Z,30.16
2017-05-21T07:50:08.315Z,29
2017-05-21T08:00:08.418Z,26.31
2017-05-21T08:10:08.235Z,25.96
2017-05-21T08:20:08.312Z,26.93
2017-05-21T08:30:08.254Z,28.29
2017-05-21T08:40:08.348Z,29.91
2017-05-21T08:50:08.295Z,30.18
2017-05-21T09:00:08.272Z,32.07
2017-05-21T09:10:08.309Z,42.54
2017-05-21T09:20:08.300Z,45.95
2017-05-21T09:30:08.337Z,48.86
2017-05-21T09:40:08.303Z,49.1
2017-05-21T09:50:08.265Z,50.69
2017-05-21T10:00:08.357Z,50.47
2017-05-21T10:10:08.642Z,50.47
2017-05-21T10:20:08.353Z,49.02
2017-05-21T10:30:08.324Z,52.33
2017-05-21T10:40:08.371Z,50.16
2017-05-21T10:50:08.277Z,49.9
2017-05-21T11:00:08.282Z,48.74
2017-05-21T11:10:08.395Z,47.58
2017-05-21T11:20:13.822Z,46.64
2017-05-21T11:30:08.373Z,43.47
2017-05-21T11:40:08.357Z,46
2017-05-21T11:50:08.312Z,49.32
2017-05-21T12:00:08.361Z,48.21
2017-05-21T12:10:08.336Z,49.19
2017-05-21T12:20:08.297Z,49.1
2017-05-21T12:30:08.358Z,46.88
2017-05-21T12:40:08.615Z,45.38
2017-05-21T12:50:08.364Z,48.39
2017-05-21T13:00:08.450Z,44.46
2017-05-21T13:10:08.407Z,44.57
2017-05-21T13:20:08.364Z,43.66
2017-05-21T13:30:08.343Z,42.33
2017-05-21T13:40:08.527Z,41.46
2017-05-21T13:50:08.309Z,40.9
2017-05-21T14:00:08.455Z,39.69
2017-05-21T14:10:08.390Z,39.78
2017-05-21T14:20:08.332Z,39.67
2017-05-21T14:30:08.414Z,41.04
2017-05-21T14:40:08.345Z,43.96
2017-05-21T14:50:08.321Z,48.93
2017-05-21T15:00:08.379Z,46.95
2017-05-21T15:10:08.357Z,46.17
2017-05-21T15:20:08.434Z,40.4
2017-05-21T15:30:08.403Z,42.65
2017-05-21T15:40:08.451Z,43.49
2017-05-21T15:50:08.355Z,45.04
2017-05-21T16:00:08.346Z,43.98
2017-05-21T16:10:08.319Z,43.3
2017-05-21T16:20:08.370Z,43.18
2017-05-21T16:30:08.334Z,44.9
2017-05-21T16:40:08.382Z,47.12
2017-05-21T16:50:08.329Z,47.38
2017-05-21T17:00:08.346Z,50.35
2017-05-21T17:10:08.333Z,50.81
2017-05-21T17:20:08.344Z,55.12
2017-05-21T17:30:08.389Z,55.31
2017-05-21T17:40:08.350Z,54.42
2017-05-21T17:50:08.333Z,57.18
2017-05-21T18:00:08.348Z,57.15
2017-05-21T18:10:08.353Z,58.98
2017-05-21T18:20:08.349Z,60.97
2017-05-21T18:30:08.364Z,62.99
2017-05-21T18:40:08.360Z,64.4
2017-05-21T18:50:08.416Z,66.1
2017-05-21T19:00:08.462Z,64.15
2017-05-21T19:10:08.353Z,67.76
2017-05-21T19:20:08.449Z,71.95
2017-05-21T19:30:08.455Z,71.34
2017-05-21T19:40:08.419Z,75.33
2017-05-21T19:50:08.372Z,77.59
2017-05-21T20:00:08.377Z,79.85
2017-05-21T20:10:08.513Z,80.48
2017-05-21T20:20:08.348Z,81.97
2017-05-21T20:30:08.458Z,84.13
2017-05-21T20:40:08.375Z,86.8
2017-05-21T20:50:08.512Z,89.25
2017-05-21T21:00:08.420Z,90.78
2017-05-21T21:10:08.398Z,94.65
2017-05-21T21:20:08.448Z,98.75
2017-05-21T21:30:08.384Z,98.32
2017-05-21T21:40:08.441Z,99.99
2017-05-21T21:50:08.379Z,99.99
2017-05-21T22:00:08.447Z,99.99
2017-05-21T22:10:08.422Z,99.99
2017-05-21T22:20:08.343Z,99.99
2017-05-21T22:30:08.445Z,99.99
2017-05-21T22:40:08.389Z,99.99
2017-05-21T22:50:08.358Z,99.99
2017-05-21T23:00:08.330Z,99.99
2017-05-21T23:10:08.337Z,99.99
2017-05-21T23:20:08.437Z,99.99
2017-05-21T23:30:08.439Z,99.99
2017-05-21T23:40:08.373Z,99.99
